sensor_id;sensor_type;location;lat;lon;timestamp;P1;durP1;ratioP1;P2;durP2;ratioP2
5279;SDS011;2663;53.588;10.010;2022-10-15T00:00:53;16.83;;;10.63;;
5279;SDS011;2663;53.588;10.010;2022-10-15T00:03:30;17.23;;;10.17;;
5279;SDS011;2663;53.588;10.010;2022-10-15T00:06:02;17.23;;;10.07;;
5279;SDS011;2663;53.588;10.010;2022-10-15T00:08:29;15.40;;;10.50;;
5279;SDS011;2663;53.588;10.010;2022-10-15T00:11:01;18.57;;;10.07;;
5279;SDS011;2663;53.588;10.010;2022-10-15T00:13:28;22.83;;;11.57;;
5279;SDS011;2663;53.588;10.010;2022-10-15T00:15:55;14.30;;;9.30;;
5279;SDS011;2663;53.588;10.010;2022-10-15T00:18:22;17.70;;;9.63;;
5279;SDS011;2663;53.588;10.010;2022-10-15T00:20:48;15.63;;;9.80;;
5279;SDS011;2663;53.588;10.010;2022-10-15T00:23:15;18.97;;;12.00;;
5279;SDS011;2663;53.588;10.010;2022-10-15T00:25:42;24.50;;;11.70;;
5279;SDS011;2663;53.588;10.010;2022-10-15T00:28:08;18.40;;;12.13;;
5279;SDS011;2663;53.588;10.010;2022-10-15T00:30:35;16.83;;;11.30;;
5279;SDS011;2663;53.588;10.010;2022-10-15T00:33:01;21.63;;;11.10;;
5279;SDS011;2663;53.588;10.010;2022-10-15T00:35:28;24.37;;;11.23;;
5279;SDS011;2663;53.588;10.010;2022-10-15T00:37:55;23.03;;;12.67;;
5279;SDS011;2663;53.588;10.010;2022-10-15T00:40:21;21.60;;;13.57;;
5279;SDS011;2663;53.588;10.010;2022-10-15T00:42:48;19.07;;;12.40;;
5279;SDS011;2663;53.588;10.010;2022-10-15T00:45:15;18.97;;;12.70;;
5279;SDS011;2663;53.588;10.010;2022-10-15T00:47:46;20.97;;;12.87;;
5279;SDS011;2663;53.588;10.010;2022-10-15T00:50:14;22.83;;;13.20;;
5279;SDS011;2663;53.588;10.010;2022-10-15T00:52:49;21.67;;;13.47;;
5279;SDS011;2663;53.588;10.010;2022-10-15T00:55:28;25.67;;;14.80;;
5279;SDS011;2663;53.588;10.010;2022-10-15T00:58:02;24.07;;;13.70;;
5279;SDS011;2663;53.588;10.010;2022-10-15T01:00:32;25.87;;;15.00;;
5279;SDS011;2663;53.588;10.010;2022-10-15T01:02:59;22.47;;;15.60;;
5279;SDS011;2663;53.588;10.010;2022-10-15T01:05:26;27.37;;;16.00;;
5279;SDS011;2663;53.588;10.010;2022-10-15T01:07:53;27.67;;;15.07;;
5279;SDS011;2663;53.588;10.010;2022-10-15T01:10:19;27.67;;;17.67;;
5279;SDS011;2663;53.588;10.010;2022-10-15T01:12:50;26.07;;;16.63;;
5279;SDS011;2663;53.588;10.010;2022-10-15T01:15:25;37.40;;;16.90;;
5279;SDS011;2663;53.588;10.010;2022-10-15T01:18:09;28.97;;;16.03;;
5279;SDS011;2663;53.588;10.010;2022-10-15T01:20:43;27.33;;;18.07;;
5279;SDS011;2663;53.588;10.010;2022-10-15T01:26:20;30.43;;;18.70;;
5279;SDS011;2663;53.588;10.010;2022-10-15T01:31:39;33.20;;;17.97;;
5279;SDS011;2663;53.588;10.010;2022-10-15T01:34:27;33.63;;;19.73;;
5279;SDS011;2663;53.588;10.010;2022-10-15T01:39:38;28.67;;;17.03;;
5279;SDS011;2663;53.588;10.010;2022-10-15T01:42:12;32.90;;;18.17;;
5279;SDS011;2663;53.588;10.010;2022-10-15T01:45:02;31.30;;;18.87;;
5279;SDS011;2663;53.588;10.010;2022-10-15T01:47:42;29.77;;;18.00;;
5279;SDS011;2663;53.588;10.010;2022-10-15T01:50:13;32.97;;;18.93;;
5279;SDS011;2663;53.588;10.010;2022-10-15T01:52:42;36.07;;;22.00;;
5279;SDS011;2663;53.588;10.010;2022-10-15T01:55:10;36.30;;;20.57;;
5279;SDS011;2663;53.588;10.010;2022-10-15T01:57:41;42.40;;;21.30;;
5279;SDS011;2663;53.588;10.010;2022-10-15T02:00:10;34.40;;;21.33;;
5279;SDS011;2663;53.588;10.010;2022-10-15T02:02:37;33.87;;;19.90;;
5279;SDS011;2663;53.588;10.010;2022-10-15T02:05:04;34.27;;;20.77;;
5279;SDS011;2663;53.588;10.010;2022-10-15T02:07:43;33.27;;;20.60;;
5279;SDS011;2663;53.588;10.010;2022-10-15T02:10:39;32.83;;;20.27;;
5279;SDS011;2663;53.588;10.010;2022-10-15T02:13:32;36.40;;;21.20;;
5279;SDS011;2663;53.588;10.010;2022-10-15T02:16:13;34.83;;;20.93;;
5279;SDS011;2663;53.588;10.010;2022-10-15T02:18:49;35.60;;;19.60;;
5279;SDS011;2663;53.588;10.010;2022-10-15T02:21:40;40.80;;;23.17;;
5279;SDS011;2663;53.588;10.010;2022-10-15T02:26:42;35.50;;;20.70;;
5279;SDS011;2663;53.588;10.010;2022-10-15T02:29:11;42.70;;;21.63;;
5279;SDS011;2663;53.588;10.010;2022-10-15T02:31:46;36.43;;;19.93;;
5279;SDS011;2663;53.588;10.010;2022-10-15T02:34:16;39.43;;;22.00;;
5279;SDS011;2663;53.588;10.010;2022-10-15T02:36:45;32.20;;;18.60;;
5279;SDS011;2663;53.588;10.010;2022-10-15T02:39:22;38.07;;;21.30;;
5279;SDS011;2663;53.588;10.010;2022-10-15T02:41:50;36.80;;;21.17;;
5279;SDS011;2663;53.588;10.010;2022-10-15T02:44:18;42.87;;;20.53;;
5279;SDS011;2663;53.588;10.010;2022-10-15T02:46:46;32.97;;;19.50;;
5279;SDS011;2663;53.588;10.010;2022-10-15T02:49:12;34.63;;;20.00;;
5279;SDS011;2663;53.588;10.010;2022-10-15T02:51:39;39.93;;;21.07;;
5279;SDS011;2663;53.588;10.010;2022-10-15T02:54:06;37.80;;;20.60;;
5279;SDS011;2663;53.588;10.010;2022-10-15T02:56:33;32.73;;;20.20;;
5279;SDS011;2663;53.588;10.010;2022-10-15T02:59:00;34.77;;;20.17;;
5279;SDS011;2663;53.588;10.010;2022-10-15T03:01:27;35.73;;;20.50;;
5279;SDS011;2663;53.588;10.010;2022-10-15T03:03:53;33.50;;;19.23;;
5279;SDS011;2663;53.588;10.010;2022-10-15T03:06:20;35.10;;;19.23;;
5279;SDS011;2663;53.588;10.010;2022-10-15T03:08:47;40.50;;;22.33;;
5279;SDS011;2663;53.588;10.010;2022-10-15T03:11:14;38.37;;;20.93;;
5279;SDS011;2663;53.588;10.010;2022-10-15T03:13:40;35.20;;;21.13;;
5279;SDS011;2663;53.588;10.010;2022-10-15T03:16:08;39.53;;;19.93;;
5279;SDS011;2663;53.588;10.010;2022-10-15T03:18:36;28.50;;;18.70;;
5279;SDS011;2663;53.588;10.010;2022-10-15T03:21:06;28.60;;;17.70;;
5279;SDS011;2663;53.588;10.010;2022-10-15T03:23:33;35.13;;;18.30;;
5279;SDS011;2663;53.588;10.010;2022-10-15T03:26:00;35.30;;;17.90;;
5279;SDS011;2663;53.588;10.010;2022-10-15T03:28:26;28.93;;;16.37;;
5279;SDS011;2663;53.588;10.010;2022-10-15T03:30:53;32.10;;;16.63;;
5279;SDS011;2663;53.588;10.010;2022-10-15T03:33:20;31.63;;;16.57;;
5279;SDS011;2663;53.588;10.010;2022-10-15T03:35:50;31.87;;;16.80;;
5279;SDS011;2663;53.588;10.010;2022-10-15T03:38:17;30.60;;;15.60;;
5279;SDS011;2663;53.588;10.010;2022-10-15T03:40:45;33.37;;;16.83;;
5279;SDS011;2663;53.588;10.010;2022-10-15T03:43:12;26.70;;;16.33;;
5279;SDS011;2663;53.588;10.010;2022-10-15T03:45:38;31.73;;;15.07;;
5279;SDS011;2663;53.588;10.010;2022-10-15T03:48:05;30.33;;;16.33;;
5279;SDS011;2663;53.588;10.010;2022-10-15T03:50:32;36.20;;;18.13;;
5279;SDS011;2663;53.588;10.010;2022-10-15T03:53:01;31.67;;;16.80;;
5279;SDS011;2663;53.588;10.010;2022-10-15T03:55:29;34.03;;;17.43;;
5279;SDS011;2663;53.588;10.010;2022-10-15T03:57:55;36.80;;;16.67;;
5279;SDS011;2663;53.588;10.010;2022-10-15T04:00:22;28.37;;;16.77;;
5279;SDS011;2663;53.588;10.010;2022-10-15T04:02:48;36.10;;;18.03;;
5279;SDS011;2663;53.588;10.010;2022-10-15T04:05:15;34.40;;;18.63;;
5279;SDS011;2663;53.588;10.010;2022-10-15T04:07:42;36.80;;;18.50;;
5279;SDS011;2663;53.588;10.010;2022-10-15T04:10:08;32.50;;;17.27;;
5279;SDS011;2663;53.588;10.010;2022-10-15T04:12:35;32.73;;;16.33;;
5279;SDS011;2663;53.588;10.010;2022-10-15T04:15:02;38.10;;;18.50;;
5279;SDS011;2663;53.588;10.010;2022-10-15T04:17:29;44.40;;;19.70;;
5279;SDS011;2663;53.588;10.010;2022-10-15T04:19:56;40.10;;;19.60;;
5279;SDS011;2663;53.588;10.010;2022-10-15T04:22:22;38.87;;;17.43;;
5279;SDS011;2663;53.588;10.010;2022-10-15T04:24:49;35.50;;;17.80;;
5279;SDS011;2663;53.588;10.010;2022-10-15T04:27:16;39.60;;;17.17;;
5279;SDS011;2663;53.588;10.010;2022-10-15T04:29:42;48.63;;;18.67;;
5279;SDS011;2663;53.588;10.010;2022-10-15T04:32:12;41.10;;;18.30;;
5279;SDS011;2663;53.588;10.010;2022-10-15T04:34:40;39.77;;;19.53;;
5279;SDS011;2663;53.588;10.010;2022-10-15T04:37:06;42.03;;;19.67;;
5279;SDS011;2663;53.588;10.010;2022-10-15T04:39:33;37.73;;;18.13;;
5279;SDS011;2663;53.588;10.010;2022-10-15T04:42:00;52.93;;;21.07;;
5279;SDS011;2663;53.588;10.010;2022-10-15T04:44:26;41.57;;;20.03;;
5279;SDS011;2663;53.588;10.010;2022-10-15T04:46:53;37.40;;;19.60;;
5279;SDS011;2663;53.588;10.010;2022-10-15T04:49:20;47.13;;;21.37;;
5279;SDS011;2663;53.588;10.010;2022-10-15T04:51:46;46.00;;;19.93;;
5279;SDS011;2663;53.588;10.010;2022-10-15T04:54:13;46.53;;;21.83;;
5279;SDS011;2663;53.588;10.010;2022-10-15T04:56:40;51.53;;;20.70;;
5279;SDS011;2663;53.588;10.010;2022-10-15T04:59:06;45.73;;;21.47;;
5279;SDS011;2663;53.588;10.010;2022-10-15T05:01:33;42.07;;;19.70;;
5279;SDS011;2663;53.588;10.010;2022-10-15T05:04:00;55.30;;;23.33;;
5279;SDS011;2663;53.588;10.010;2022-10-15T05:06:27;39.87;;;20.17;;
5279;SDS011;2663;53.588;10.010;2022-10-15T05:08:53;46.87;;;22.17;;
5279;SDS011;2663;53.588;10.010;2022-10-15T05:11:21;49.37;;;21.07;;
5279;SDS011;2663;53.588;10.010;2022-10-15T05:13:50;45.67;;;22.10;;
5279;SDS011;2663;53.588;10.010;2022-10-15T05:16:22;50.17;;;21.53;;
5279;SDS011;2663;53.588;10.010;2022-10-15T05:18:51;50.93;;;22.50;;
5279;SDS011;2663;53.588;10.010;2022-10-15T05:21:21;56.50;;;22.77;;
5279;SDS011;2663;53.588;10.010;2022-10-15T05:23:47;49.00;;;21.90;;
5279;SDS011;2663;53.588;10.010;2022-10-15T05:26:19;43.87;;;21.20;;
5279;SDS011;2663;53.588;10.010;2022-10-15T05:28:48;52.00;;;21.67;;
5279;SDS011;2663;53.588;10.010;2022-10-15T05:31:17;49.87;;;21.70;;
5279;SDS011;2663;53.588;10.010;2022-10-15T05:33:46;53.13;;;23.50;;
5279;SDS011;2663;53.588;10.010;2022-10-15T05:36:14;42.50;;;23.30;;
5279;SDS011;2663;53.588;10.010;2022-10-15T05:38:45;50.13;;;20.57;;
5279;SDS011;2663;53.588;10.010;2022-10-15T05:41:17;47.90;;;21.03;;
5279;SDS011;2663;53.588;10.010;2022-10-15T05:43:47;53.67;;;22.37;;
5279;SDS011;2663;53.588;10.010;2022-10-15T05:46:15;61.63;;;27.03;;
5279;SDS011;2663;53.588;10.010;2022-10-15T05:48:43;53.73;;;23.77;;
5279;SDS011;2663;53.588;10.010;2022-10-15T05:51:14;59.33;;;23.63;;
5279;SDS011;2663;53.588;10.010;2022-10-15T05:53:41;56.60;;;25.63;;
5279;SDS011;2663;53.588;10.010;2022-10-15T05:56:08;55.90;;;24.30;;
5279;SDS011;2663;53.588;10.010;2022-10-15T05:58:35;56.57;;;25.00;;
5279;SDS011;2663;53.588;10.010;2022-10-15T06:01:04;56.33;;;23.87;;
5279;SDS011;2663;53.588;10.010;2022-10-15T06:03:32;59.30;;;24.17;;
5279;SDS011;2663;53.588;10.010;2022-10-15T06:05:59;62.13;;;27.50;;
5279;SDS011;2663;53.588;10.010;2022-10-15T06:08:26;56.30;;;26.57;;
5279;SDS011;2663;53.588;10.010;2022-10-15T06:10:55;67.17;;;25.77;;
5279;SDS011;2663;53.588;10.010;2022-10-15T06:13:33;52.47;;;24.10;;
5279;SDS011;2663;53.588;10.010;2022-10-15T06:16:01;63.00;;;24.97;;
5279;SDS011;2663;53.588;10.010;2022-10-15T06:18:28;54.50;;;24.00;;
5279;SDS011;2663;53.588;10.010;2022-10-15T06:20:55;56.67;;;24.90;;
5279;SDS011;2663;53.588;10.010;2022-10-15T06:23:21;60.40;;;23.10;;
5279;SDS011;2663;53.588;10.010;2022-10-15T06:25:49;61.83;;;24.70;;
5279;SDS011;2663;53.588;10.010;2022-10-15T06:28:16;57.00;;;23.30;;
5279;SDS011;2663;53.588;10.010;2022-10-15T06:30:43;56.97;;;27.03;;
5279;SDS011;2663;53.588;10.010;2022-10-15T06:33:10;61.53;;;25.90;;
5279;SDS011;2663;53.588;10.010;2022-10-15T06:35:42;50.67;;;22.40;;
5279;SDS011;2663;53.588;10.010;2022-10-15T06:38:08;49.43;;;24.67;;
5279;SDS011;2663;53.588;10.010;2022-10-15T06:40:36;52.23;;;22.10;;
5279;SDS011;2663;53.588;10.010;2022-10-15T06:43:03;56.47;;;23.90;;
5279;SDS011;2663;53.588;10.010;2022-10-15T06:45:41;51.87;;;23.20;;
5279;SDS011;2663;53.588;10.010;2022-10-15T06:48:08;54.80;;;23.40;;
5279;SDS011;2663;53.588;10.010;2022-10-15T06:50:35;52.00;;;24.53;;
5279;SDS011;2663;53.588;10.010;2022-10-15T06:53:03;52.87;;;25.00;;
5279;SDS011;2663;53.588;10.010;2022-10-15T06:55:31;52.27;;;24.80;;
5279;SDS011;2663;53.588;10.010;2022-10-15T06:57:58;54.63;;;23.87;;
5279;SDS011;2663;53.588;10.010;2022-10-15T07:00:24;62.97;;;25.30;;
5279;SDS011;2663;53.588;10.010;2022-10-15T07:02:52;60.07;;;25.70;;
5279;SDS011;2663;53.588;10.010;2022-10-15T07:05:19;57.43;;;25.90;;
5279;SDS011;2663;53.588;10.010;2022-10-15T07:07:55;49.37;;;25.43;;
5279;SDS011;2663;53.588;10.010;2022-10-15T07:10:23;50.83;;;22.93;;
5279;SDS011;2663;53.588;10.010;2022-10-15T07:12:51;61.13;;;25.77;;
5279;SDS011;2663;53.588;10.010;2022-10-15T07:15:20;67.17;;;27.83;;
5279;SDS011;2663;53.588;10.010;2022-10-15T07:17:51;59.93;;;25.43;;
5279;SDS011;2663;53.588;10.010;2022-10-15T07:20:21;51.97;;;24.87;;
5279;SDS011;2663;53.588;10.010;2022-10-15T07:22:49;54.03;;;25.63;;
5279;SDS011;2663;53.588;10.010;2022-10-15T07:25:20;51.97;;;23.93;;
5279;SDS011;2663;53.588;10.010;2022-10-15T07:27:47;52.07;;;23.90;;
5279;SDS011;2663;53.588;10.010;2022-10-15T07:30:13;49.53;;;24.03;;
5279;SDS011;2663;53.588;10.010;2022-10-15T07:32:40;48.70;;;25.20;;
5279;SDS011;2663;53.588;10.010;2022-10-15T07:35:11;58.70;;;25.20;;
5279;SDS011;2663;53.588;10.010;2022-10-15T07:37:38;59.27;;;24.10;;
5279;SDS011;2663;53.588;10.010;2022-10-15T07:40:05;46.63;;;24.10;;
5279;SDS011;2663;53.588;10.010;2022-10-15T07:42:33;53.30;;;24.83;;
5279;SDS011;2663;53.588;10.010;2022-10-15T07:44:59;54.33;;;24.00;;
5279;SDS011;2663;53.588;10.010;2022-10-15T07:47:26;54.83;;;24.50;;
5279;SDS011;2663;53.588;10.010;2022-10-15T07:49:53;52.37;;;23.60;;
5279;SDS011;2663;53.588;10.010;2022-10-15T07:52:20;46.93;;;22.10;;
5279;SDS011;2663;53.588;10.010;2022-10-15T07:54:47;55.03;;;24.93;;
5279;SDS011;2663;53.588;10.010;2022-10-15T07:57:13;55.27;;;24.40;;
5279;SDS011;2663;53.588;10.010;2022-10-15T07:59:40;60.60;;;23.87;;
5279;SDS011;2663;53.588;10.010;2022-10-15T08:02:10;49.57;;;25.17;;
5279;SDS011;2663;53.588;10.010;2022-10-15T08:04:43;49.03;;;23.90;;
5279;SDS011;2663;53.588;10.010;2022-10-15T08:07:10;51.97;;;23.60;;
5279;SDS011;2663;53.588;10.010;2022-10-15T08:09:36;46.90;;;23.30;;
5279;SDS011;2663;53.588;10.010;2022-10-15T08:12:03;45.33;;;22.13;;
5279;SDS011;2663;53.588;10.010;2022-10-15T08:14:32;51.23;;;22.50;;
5279;SDS011;2663;53.588;10.010;2022-10-15T08:17:00;45.77;;;21.40;;
5279;SDS011;2663;53.588;10.010;2022-10-15T08:19:28;51.17;;;22.87;;
5279;SDS011;2663;53.588;10.010;2022-10-15T08:21:54;37.23;;;19.00;;
5279;SDS011;2663;53.588;10.010;2022-10-15T08:24:22;45.33;;;21.03;;
5279;SDS011;2663;53.588;10.010;2022-10-15T08:26:48;40.33;;;19.67;;
5279;SDS011;2663;53.588;10.010;2022-10-15T08:29:15;43.60;;;20.10;;
5279;SDS011;2663;53.588;10.010;2022-10-15T08:31:42;44.43;;;21.63;;
5279;SDS011;2663;53.588;10.010;2022-10-15T08:34:08;38.07;;;19.00;;
5279;SDS011;2663;53.588;10.010;2022-10-15T08:36:35;43.20;;;20.77;;
5279;SDS011;2663;53.588;10.010;2022-10-15T08:39:02;40.23;;;20.10;;
5279;SDS011;2663;53.588;10.010;2022-10-15T08:41:39;34.93;;;18.70;;
5279;SDS011;2663;53.588;10.010;2022-10-15T08:44:11;44.87;;;19.57;;
5279;SDS011;2663;53.588;10.010;2022-10-15T08:49:50;53.77;;;24.07;;
5279;SDS011;2663;53.588;10.010;2022-10-15T08:52:28;40.87;;;20.43;;
5279;SDS011;2663;53.588;10.010;2022-10-15T08:55:19;41.43;;;20.90;;
5279;SDS011;2663;53.588;10.010;2022-10-15T08:57:54;30.70;;;18.07;;
5279;SDS011;2663;53.588;10.010;2022-10-15T09:00:43;39.63;;;19.23;;
5279;SDS011;2663;53.588;10.010;2022-10-15T09:03:23;36.30;;;18.60;;
5279;SDS011;2663;53.588;10.010;2022-10-15T09:14:15;37.70;;;19.90;;
5279;SDS011;2663;53.588;10.010;2022-10-15T09:16:47;36.30;;;17.43;;
5279;SDS011;2663;53.588;10.010;2022-10-15T09:19:19;37.13;;;19.40;;
5279;SDS011;2663;53.588;10.010;2022-10-15T09:21:49;40.50;;;17.07;;
5279;SDS011;2663;53.588;10.010;2022-10-15T09:24:21;39.97;;;18.60;;
5279;SDS011;2663;53.588;10.010;2022-10-15T09:26:56;35.77;;;16.53;;
5279;SDS011;2663;53.588;10.010;2022-10-15T09:34:44;40.10;;;20.43;;
5279;SDS011;2663;53.588;10.010;2022-10-15T09:37:28;35.00;;;19.03;;
5279;SDS011;2663;53.588;10.010;2022-10-15T09:43:02;37.80;;;17.30;;
5279;SDS011;2663;53.588;10.010;2022-10-15T09:45:31;28.30;;;16.03;;
5279;SDS011;2663;53.588;10.010;2022-10-15T09:47:58;30.80;;;17.53;;
5279;SDS011;2663;53.588;10.010;2022-10-15T09:50:34;29.80;;;15.47;;
5279;SDS011;2663;53.588;10.010;2022-10-15T09:56:08;33.53;;;18.10;;
5279;SDS011;2663;53.588;10.010;2022-10-15T09:58:56;32.50;;;16.77;;
5279;SDS011;2663;53.588;10.010;2022-10-15T10:01:24;35.00;;;18.40;;
5279;SDS011;2663;53.588;10.010;2022-10-15T10:04:38;36.97;;;16.73;;
5279;SDS011;2663;53.588;10.010;2022-10-15T10:06:47;37.07;;;15.80;;
5279;SDS011;2663;53.588;10.010;2022-10-15T10:09:19;36.33;;;17.07;;
5279;SDS011;2663;53.588;10.010;2022-10-15T10:12:06;27.57;;;14.23;;
5279;SDS011;2663;53.588;10.010;2022-10-15T10:17:22;32.03;;;16.03;;
5279;SDS011;2663;53.588;10.010;2022-10-15T10:22:41;24.73;;;12.37;;
5279;SDS011;2663;53.588;10.010;2022-10-15T10:28:02;26.67;;;12.83;;
5279;SDS011;2663;53.588;10.010;2022-10-15T10:30:52;25.40;;;13.07;;
5279;SDS011;2663;53.588;10.010;2022-10-15T10:33:29;29.20;;;13.27;;
5279;SDS011;2663;53.588;10.010;2022-10-15T10:36:02;26.43;;;11.87;;
5279;SDS011;2663;53.588;10.010;2022-10-15T10:41:01;20.83;;;11.63;;
5279;SDS011;2663;53.588;10.010;2022-10-15T10:43:33;23.43;;;13.70;;
5279;SDS011;2663;53.588;10.010;2022-10-15T10:48:45;24.20;;;12.23;;
5279;SDS011;2663;53.588;10.010;2022-10-15T10:53:49;29.20;;;8.03;;
5279;SDS011;2663;53.588;10.010;2022-10-15T10:56:29;34.80;;;9.90;;
5279;SDS011;2663;53.588;10.010;2022-10-15T10:59:02;22.60;;;11.07;;
5279;SDS011;2663;53.588;10.010;2022-10-15T11:01:36;35.43;;;12.67;;
5279;SDS011;2663;53.588;10.010;2022-10-15T11:04:03;18.63;;;9.50;;
5279;SDS011;2663;53.588;10.010;2022-10-15T11:06:44;16.97;;;9.90;;
5279;SDS011;2663;53.588;10.010;2022-10-15T11:17:34;20.37;;;9.60;;
5279;SDS011;2663;53.588;10.010;2022-10-15T11:23:51;20.07;;;9.33;;
5279;SDS011;2663;53.588;10.010;2022-10-15T11:27:08;15.97;;;7.40;;
5279;SDS011;2663;53.588;10.010;2022-10-15T11:32:34;16.00;;;7.00;;
5279;SDS011;2663;53.588;10.010;2022-10-15T11:35:45;14.20;;;7.53;;
5279;SDS011;2663;53.588;10.010;2022-10-15T11:41:15;10.10;;;6.47;;
5279;SDS011;2663;53.588;10.010;2022-10-15T11:46:49;10.73;;;5.93;;
5279;SDS011;2663;53.588;10.010;2022-10-15T11:55:27;9.97;;;4.30;;
5279;SDS011;2663;53.588;10.010;2022-10-15T12:00:55;8.23;;;4.60;;
5279;SDS011;2663;53.588;10.010;2022-10-15T12:03:26;8.90;;;3.80;;
5279;SDS011;2663;53.588;10.010;2022-10-15T12:06:02;12.40;;;3.73;;
5279;SDS011;2663;53.588;10.010;2022-10-15T12:08:33;10.90;;;3.63;;
5279;SDS011;2663;53.588;10.010;2022-10-15T12:11:05;5.93;;;3.70;;
5279;SDS011;2663;53.588;10.010;2022-10-15T12:14:04;12.30;;;4.30;;
5279;SDS011;2663;53.588;10.010;2022-10-15T12:16:44;8.40;;;3.27;;
5279;SDS011;2663;53.588;10.010;2022-10-15T12:19:22;5.47;;;3.03;;
5279;SDS011;2663;53.588;10.010;2022-10-15T12:29:44;6.30;;;3.73;;
5279;SDS011;2663;53.588;10.010;2022-10-15T12:32:25;5.33;;;3.30;;
5279;SDS011;2663;53.588;10.010;2022-10-15T12:34:57;9.77;;;3.63;;
5279;SDS011;2663;53.588;10.010;2022-10-15T12:37:26;8.33;;;4.20;;
5279;SDS011;2663;53.588;10.010;2022-10-15T12:39:58;7.30;;;3.83;;
5279;SDS011;2663;53.588;10.010;2022-10-15T12:42:30;4.33;;;3.13;;
5279;SDS011;2663;53.588;10.010;2022-10-15T12:45:00;11.73;;;3.43;;
5279;SDS011;2663;53.588;10.010;2022-10-15T12:55:35;9.50;;;3.13;;
5279;SDS011;2663;53.588;10.010;2022-10-15T13:00:35;7.27;;;3.57;;
5279;SDS011;2663;53.588;10.010;2022-10-15T13:03:23;6.67;;;3.20;;
5279;SDS011;2663;53.588;10.010;2022-10-15T13:05:59;6.93;;;3.40;;
5279;SDS011;2663;53.588;10.010;2022-10-15T13:11:41;10.03;;;4.50;;
5279;SDS011;2663;53.588;10.010;2022-10-15T13:14:25;5.40;;;3.40;;
5279;SDS011;2663;53.588;10.010;2022-10-15T13:17:15;8.67;;;4.20;;
5279;SDS011;2663;53.588;10.010;2022-10-15T13:19:51;12.50;;;5.30;;
5279;SDS011;2663;53.588;10.010;2022-10-15T13:22:33;5.47;;;3.67;;
5279;SDS011;2663;53.588;10.010;2022-10-15T13:25:01;13.53;;;4.83;;
5279;SDS011;2663;53.588;10.010;2022-10-15T13:27:35;6.20;;;4.73;;
5279;SDS011;2663;53.588;10.010;2022-10-15T13:32:37;9.70;;;5.50;;
5279;SDS011;2663;53.588;10.010;2022-10-15T13:35:12;5.00;;;4.10;;
5279;SDS011;2663;53.588;10.010;2022-10-15T13:37:47;6.23;;;4.00;;
5279;SDS011;2663;53.588;10.010;2022-10-15T13:40:21;8.37;;;4.63;;
5279;SDS011;2663;53.588;10.010;2022-10-15T13:42:59;4.37;;;3.93;;
5279;SDS011;2663;53.588;10.010;2022-10-15T13:45:33;17.30;;;4.40;;
5279;SDS011;2663;53.588;10.010;2022-10-15T13:48:02;8.67;;;4.60;;
5279;SDS011;2663;53.588;10.010;2022-10-15T13:50:36;12.47;;;5.13;;
5279;SDS011;2663;53.588;10.010;2022-10-15T13:55:50;11.57;;;4.23;;
5279;SDS011;2663;53.588;10.010;2022-10-15T13:58:23;7.07;;;5.20;;
5279;SDS011;2663;53.588;10.010;2022-10-15T14:03:28;10.10;;;6.30;;
5279;SDS011;2663;53.588;10.010;2022-10-15T14:06:14;10.60;;;6.30;;
5279;SDS011;2663;53.588;10.010;2022-10-15T14:08:42;11.70;;;6.53;;
5279;SDS011;2663;53.588;10.010;2022-10-15T14:11:10;13.57;;;7.40;;
5279;SDS011;2663;53.588;10.010;2022-10-15T14:13:48;13.13;;;8.10;;
5279;SDS011;2663;53.588;10.010;2022-10-15T14:18:50;10.10;;;7.50;;
5279;SDS011;2663;53.588;10.010;2022-10-15T14:21:20;17.17;;;8.97;;
5279;SDS011;2663;53.588;10.010;2022-10-15T14:26:44;16.93;;;9.77;;
5279;SDS011;2663;53.588;10.010;2022-10-15T14:29:21;14.73;;;8.80;;
5279;SDS011;2663;53.588;10.010;2022-10-15T14:31:52;16.70;;;10.53;;
5279;SDS011;2663;53.588;10.010;2022-10-15T14:42:37;14.10;;;9.10;;
5279;SDS011;2663;53.588;10.010;2022-10-15T14:45:11;17.00;;;8.63;;
5279;SDS011;2663;53.588;10.010;2022-10-15T14:47:44;20.03;;;9.40;;
5279;SDS011;2663;53.588;10.010;2022-10-15T14:50:13;12.77;;;8.27;;
5279;SDS011;2663;53.588;10.010;2022-10-15T14:52:43;19.30;;;9.77;;
5279;SDS011;2663;53.588;10.010;2022-10-15T14:55:18;21.37;;;10.80;;
5279;SDS011;2663;53.588;10.010;2022-10-15T14:57:59;13.47;;;9.97;;
5279;SDS011;2663;53.588;10.010;2022-10-15T15:00:32;14.50;;;9.93;;
5279;SDS011;2663;53.588;10.010;2022-10-15T15:03:12;18.57;;;10.17;;
5279;SDS011;2663;53.588;10.010;2022-10-15T15:05:43;21.40;;;9.77;;
5279;SDS011;2663;53.588;10.010;2022-10-15T15:08:10;17.57;;;11.23;;
5279;SDS011;2663;53.588;10.010;2022-10-15T15:10:38;18.80;;;11.87;;
5279;SDS011;2663;53.588;10.010;2022-10-15T15:13:04;20.00;;;10.27;;
5279;SDS011;2663;53.588;10.010;2022-10-15T15:15:31;17.17;;;11.07;;
5279;SDS011;2663;53.588;10.010;2022-10-15T15:17:58;20.80;;;11.20;;
5279;SDS011;2663;53.588;10.010;2022-10-15T15:20:25;19.43;;;12.87;;
5279;SDS011;2663;53.588;10.010;2022-10-15T15:22:52;18.77;;;10.30;;
5279;SDS011;2663;53.588;10.010;2022-10-15T15:25:20;17.17;;;10.77;;
5279;SDS011;2663;53.588;10.010;2022-10-15T15:27:55;22.73;;;11.60;;
5279;SDS011;2663;53.588;10.010;2022-10-15T15:30:23;19.97;;;11.90;;
5279;SDS011;2663;53.588;10.010;2022-10-15T15:32:52;21.53;;;12.63;;
5279;SDS011;2663;53.588;10.010;2022-10-15T15:38:06;17.27;;;11.53;;
5279;SDS011;2663;53.588;10.010;2022-10-15T15:40:33;18.33;;;10.90;;
5279;SDS011;2663;53.588;10.010;2022-10-15T15:43:00;18.57;;;11.57;;
5279;SDS011;2663;53.588;10.010;2022-10-15T15:45:27;18.57;;;11.20;;
5279;SDS011;2663;53.588;10.010;2022-10-15T15:47:54;18.27;;;11.50;;
5279;SDS011;2663;53.588;10.010;2022-10-15T15:50:23;16.40;;;11.60;;
5279;SDS011;2663;53.588;10.010;2022-10-15T15:52:50;14.27;;;10.27;;
5279;SDS011;2663;53.588;10.010;2022-10-15T15:55:17;18.80;;;10.17;;
5279;SDS011;2663;53.588;10.010;2022-10-15T15:57:43;15.33;;;10.30;;
5279;SDS011;2663;53.588;10.010;2022-10-15T16:00:11;18.57;;;11.87;;
5279;SDS011;2663;53.588;10.010;2022-10-15T16:02:38;15.53;;;10.67;;
5279;SDS011;2663;53.588;10.010;2022-10-15T16:05:05;16.37;;;11.43;;
5279;SDS011;2663;53.588;10.010;2022-10-15T16:07:33;16.20;;;10.67;;
5279;SDS011;2663;53.588;10.010;2022-10-15T16:10:01;17.33;;;11.43;;
5279;SDS011;2663;53.588;10.010;2022-10-15T16:12:31;18.27;;;12.00;;
5279;SDS011;2663;53.588;10.010;2022-10-15T16:14:59;13.00;;;10.63;;
5279;SDS011;2663;53.588;10.010;2022-10-15T16:17:26;14.90;;;11.73;;
5279;SDS011;2663;53.588;10.010;2022-10-15T16:19:53;22.10;;;12.90;;
5279;SDS011;2663;53.588;10.010;2022-10-15T16:22:19;23.50;;;14.37;;
5279;SDS011;2663;53.588;10.010;2022-10-15T16:24:46;17.30;;;12.47;;
5279;SDS011;2663;53.588;10.010;2022-10-15T16:27:13;19.23;;;12.13;;
5279;SDS011;2663;53.588;10.010;2022-10-15T16:29:39;17.93;;;11.90;;
5279;SDS011;2663;53.588;10.010;2022-10-15T16:32:06;20.00;;;11.77;;
5279;SDS011;2663;53.588;10.010;2022-10-15T16:34:33;18.53;;;11.70;;
5279;SDS011;2663;53.588;10.010;2022-10-15T16:36:59;18.60;;;13.30;;
5279;SDS011;2663;53.588;10.010;2022-10-15T16:39:26;18.50;;;13.37;;
5279;SDS011;2663;53.588;10.010;2022-10-15T16:41:53;21.43;;;12.30;;
5279;SDS011;2663;53.588;10.010;2022-10-15T16:44:20;17.77;;;11.77;;
5279;SDS011;2663;53.588;10.010;2022-10-15T16:46:47;19.00;;;12.33;;
5279;SDS011;2663;53.588;10.010;2022-10-15T16:49:14;15.70;;;11.40;;
5279;SDS011;2663;53.588;10.010;2022-10-15T16:51:40;17.30;;;11.50;;
5279;SDS011;2663;53.588;10.010;2022-10-15T16:54:12;15.97;;;11.30;;
5279;SDS011;2663;53.588;10.010;2022-10-15T16:56:40;16.90;;;11.47;;
5279;SDS011;2663;53.588;10.010;2022-10-15T16:59:07;15.90;;;10.87;;
5279;SDS011;2663;53.588;10.010;2022-10-15T17:01:35;18.90;;;11.37;;
5279;SDS011;2663;53.588;10.010;2022-10-15T17:04:02;16.90;;;12.40;;